Time;durP1;ratioP1;P1;durP2;ratioP2;P2;SDS_P1;SDS_P2;PMS_P1;PMS_P2;Temp;Humidity;BMP_temperature;BMP_pressure;BME280_temperature;BME280_humidity;BME280_pressure;Samples;Min_cycle;Max_cycle;Signal;HPM_P1;HPM_P2
2023/02/12 00:01:30;;;;;;;18.15;14.07;;;;;;;;;;5074213;28;20262;-84
2023/02/12 00:03:58;;;;;;;15.70;12.23;;;;;;;;;;5073511;28;20312;-84
2023/02/12 00:06:26;;;;;;;14.70;12.85;;;;;;;;;;5057395;28;20666;-84
2023/02/12 00:08:55;;;;;;;13.15;11.63;;;;;;;;;;5051671;28;20208;-83
2023/02/12 00:11:27;;;;;;;17.52;12.57;;;;;;;;;;5052318;28;20312;-82
2023/02/12 00:13:55;;;;;;;13.70;11.18;;;;;;;;;;5052739;28;20201;-81
2023/02/12 00:16:25;;;;;;;13.50;11.70;;;;;;;;;;5052379;28;20205;-83
2023/02/12 00:18:55;;;;;;;14.68;11.82;;;;;;;;;;5051573;28;20237;-82
2023/02/12 00:21:24;;;;;;;19.08;13.57;;;;;;;;;;5051855;28;20217;-82
2023/02/12 00:23:51;;;;;;;14.23;12.77;;;;;;;;;;5072038;28;20323;-83
2023/02/12 00:26:25;;;;;;;14.82;12.25;;;;;;;;;;5071610;28;20651;-83
2023/02/12 00:28:53;;;;;;;12.48;11.07;;;;;;;;;;5070365;28;20232;-83
2023/02/12 00:31:24;;;;;;;14.18;12.60;;;;;;;;;;5071768;28;20227;-82
2023/02/12 00:33:51;;;;;;;11.68;10.40;;;;;;;;;;5072037;28;20300;-83
2023/02/12 00:36:22;;;;;;;15.05;12.32;;;;;;;;;;5072119;28;20205;-84
2023/02/12 00:38:52;;;;;;;13.57;12.10;;;;;;;;;;5071364;28;20203;-82
2023/02/12 00:41:20;;;;;;;12.70;11.32;;;;;;;;;;5071998;28;20217;-83
2023/02/12 00:43:49;;;;;;;13.88;12.30;;;;;;;;;;5071572;28;20220;-82
2023/02/12 00:46:16;;;;;;;13.00;11.32;;;;;;;;;;5071807;28;20207;-83
2023/02/12 00:48:44;;;;;;;11.23;9.75;;;;;;;;;;5071357;28;20205;-82
2023/02/12 00:51:13;;;;;;;11.95;10.73;;;;;;;;;;5071356;28;20239;-82
2023/02/12 00:53:41;;;;;;;10.65;9.50;;;;;;;;;;5052858;28;20206;-83
2023/02/12 00:56:09;;;;;;;10.43;8.45;;;;;;;;;;5051439;28;20292;-83
2023/02/12 00:58:36;;;;;;;7.20;6.50;;;;;;;;;;5051116;28;20201;-83
2023/02/12 01:01:05;;;;;;;9.65;7.85;;;;;;;;;;5051066;28;20312;-83
2023/02/12 01:03:33;;;;;;;10.07;8.70;;;;;;;;;;5051005;28;20626;-83
2023/02/12 01:06:01;;;;;;;11.57;10.38;;;;;;;;;;5051126;28;20197;-83
2023/02/12 01:08:29;;;;;;;11.88;8.77;;;;;;;;;;5050603;28;20201;-83
2023/02/12 01:10:58;;;;;;;12.88;11.52;;;;;;;;;;5051033;28;20222;-83
2023/02/12 01:13:27;;;;;;;13.35;10.77;;;;;;;;;;5051630;28;20208;-82
2023/02/12 01:16:09;;;;;;;10.48;9.38;;;;;;;;;;5051406;28;20201;-83
2023/02/12 01:18:38;;;;;;;11.73;10.50;;;;;;;;;;5050799;28;20202;-82
2023/02/12 01:21:11;;;;;;;12.70;11.18;;;;;;;;;;5050692;28;20224;-83
2023/02/12 01:23:38;;;;;;;18.20;14.13;;;;;;;;;;5069418;28;20700;-83
2023/02/12 01:26:09;;;;;;;12.35;11.02;;;;;;;;;;5071315;28;20287;-84
2023/02/12 01:28:37;;;;;;;15.18;13.45;;;;;;;;;;5070544;28;20208;-83
2023/02/12 01:31:10;;;;;;;13.85;11.23;;;;;;;;;;5071244;28;20776;-83
2023/02/12 01:33:38;;;;;;;11.48;10.32;;;;;;;;;;5070982;28;20737;-82
2023/02/12 01:36:06;;;;;;;12.75;11.45;;;;;;;;;;5071197;28;20292;-83
2023/02/12 01:38:34;;;;;;;16.65;12.88;;;;;;;;;;5070215;28;20197;-84
2023/02/12 01:41:05;;;;;;;14.82;12.52;;;;;;;;;;5073320;28;20229;-83
2023/02/12 01:43:35;;;;;;;13.50;12.10;;;;;;;;;;5074542;28;20231;-83
2023/02/12 01:46:03;;;;;;;13.90;11.68;;;;;;;;;;5074519;28;20296;-83
2023/02/12 01:48:38;;;;;;;14.35;12.05;;;;;;;;;;5073989;28;20209;-83
2023/02/12 01:51:07;;;;;;;11.70;9.25;;;;;;;;;;5074662;28;20314;-83
2023/02/12 01:53:39;;;;;;;10.98;8.02;;;;;;;;;;5074234;28;20224;-83
2023/02/12 01:56:08;;;;;;;12.85;10.50;;;;;;;;;;5074416;28;20216;-83
2023/02/12 01:58:40;;;;;;;12.55;10.88;;;;;;;;;;5073790;28;20201;-83
2023/02/12 02:01:12;;;;;;;13.82;12.32;;;;;;;;;;5074421;28;20209;-83
2023/02/12 02:03:42;;;;;;;11.80;10.23;;;;;;;;;;5074065;28;20616;-83
2023/02/12 02:06:14;;;;;;;15.00;12.30;;;;;;;;;;5074889;28;20276;-83
2023/02/12 02:08:42;;;;;;;13.23;11.60;;;;;;;;;;5073964;28;20196;-83
2023/02/12 02:16:38;;;;;;;12.75;10.07;;;;;;;;;;5074445;28;20224;-83
2023/02/12 02:19:17;;;;;;;13.13;10.80;;;;;;;;;;5074023;28;20288;-83
2023/02/12 02:22:09;;;;;;;13.68;10.45;;;;;;;;;;5074643;28;20231;-83
2023/02/12 02:25:25;;;;;;;11.10;9.15;;;;;;;;;;5074371;28;20311;-83
2023/02/12 02:28:12;;;;;;;11.80;8.60;;;;;;;;;;5074376;28;20189;-83
2023/02/12 02:30:44;;;;;;;10.48;9.30;;;;;;;;;;5073934;28;20228;-83
2023/02/12 02:33:25;;;;;;;11.93;9.98;;;;;;;;;;5074004;28;20654;-83
2023/02/12 02:35:59;;;;;;;9.70;8.73;;;;;;;;;;5073802;28;20642;-83
2023/02/12 02:38:35;;;;;;;14.25;8.73;;;;;;;;;;5073379;28;20209;-82
2023/02/12 02:41:07;;;;;;;8.95;8.05;;;;;;;;;;5073632;28;20224;-82
2023/02/12 02:43:38;;;;;;;10.55;7.78;;;;;;;;;;5074155;28;20189;-84
2023/02/12 02:46:11;;;;;;;9.93;8.77;;;;;;;;;;5073654;28;20221;-82
2023/02/12 02:48:42;;;;;;;9.52;8.48;;;;;;;;;;5073599;28;20205;-83
2023/02/12 02:53:43;;;;;;;8.60;6.93;;;;;;;;;;5072002;28;20240;-89
2023/02/12 02:56:18;;;;;;;9.32;6.65;;;;;;;;;;5072818;28;20227;-88
2023/02/12 02:58:50;;;;;;;8.52;7.15;;;;;;;;;;5072403;28;20208;-89
2023/02/12 03:01:22;;;;;;;9.10;7.13;;;;;;;;;;5072729;28;20211;-89
2023/02/12 03:03:53;;;;;;;7.43;6.40;;;;;;;;;;5072365;28;20736;-90
2023/02/12 03:06:26;;;;;;;8.48;6.28;;;;;;;;;;5072624;28;20217;-86
2023/02/12 03:08:58;;;;;;;7.63;6.88;;;;;;;;;;5072912;28;20306;-85
2023/02/12 03:11:28;;;;;;;5.25;4.75;;;;;;;;;;5072885;28;20288;-86
2023/02/12 03:13:59;;;;;;;8.88;7.05;;;;;;;;;;5074131;28;20239;-85
2023/02/12 03:16:31;;;;;;;5.82;5.05;;;;;;;;;;5074224;28;20276;-85
2023/02/12 03:19:05;;;;;;;7.70;6.05;;;;;;;;;;5073933;28;20190;-85
2023/02/12 03:21:37;;;;;;;6.90;6.20;;;;;;;;;;5074258;28;20279;-85
2023/02/12 03:24:12;;;;;;;7.78;5.88;;;;;;;;;;5074140;28;20304;-85
2023/02/12 03:26:45;;;;;;;6.50;5.50;;;;;;;;;;5074033;28;20651;-85
2023/02/12 03:29:13;;;;;;;5.50;4.85;;;;;;;;;;5073560;28;20212;-85
2023/02/12 03:31:53;;;;;;;8.02;6.95;;;;;;;;;;5073677;28;20236;-86
2023/02/12 03:34:28;;;;;;;7.70;6.50;;;;;;;;;;5074224;28;20303;-85
2023/02/12 03:36:59;;;;;;;6.55;5.68;;;;;;;;;;5074131;28;20195;-85
2023/02/12 03:39:33;;;;;;;9.27;6.13;;;;;;;;;;5073070;28;20236;-85
2023/02/12 03:42:05;;;;;;;6.93;6.07;;;;;;;;;;5073700;28;20201;-85
2023/02/12 03:44:47;;;;;;;7.25;5.78;;;;;;;;;;5073322;28;20221;-85
2023/02/12 03:47:23;;;;;;;6.57;5.68;;;;;;;;;;5073899;28;20630;-85
2023/02/12 03:49:59;;;;;;;4.82;4.22;;;;;;;;;;5073201;28;20189;-85
2023/02/12 03:52:27;;;;;;;6.80;5.78;;;;;;;;;;5073747;28;20212;-85
2023/02/12 03:54:54;;;;;;;4.95;4.43;;;;;;;;;;5073755;28;20244;-85
2023/02/12 03:57:26;;;;;;;6.25;5.40;;;;;;;;;;5073404;28;20237;-85
2023/02/12 03:59:53;;;;;;;6.57;5.20;;;;;;;;;;5072881;28;20261;-85
2023/02/12 04:02:22;;;;;;;5.97;5.03;;;;;;;;;;5073423;28;20244;-85
2023/02/12 04:04:50;;;;;;;5.53;4.80;;;;;;;;;;5073079;28;20768;-85
2023/02/12 04:07:17;;;;;;;6.03;4.85;;;;;;;;;;5073335;28;20296;-86
2023/02/12 04:09:45;;;;;;;6.72;5.63;;;;;;;;;;5072789;28;20292;-85
2023/02/12 04:12:40;;;;;;;6.53;5.05;;;;;;;;;;5073637;28;20228;-85
2023/02/12 04:15:22;;;;;;;6.70;5.40;;;;;;;;;;5071377;28;20220;-85
2023/02/12 04:18:00;;;;;;;6.10;5.50;;;;;;;;;;5073632;28;20193;-85
2023/02/12 04:20:35;;;;;;;6.60;5.05;;;;;;;;;;5072980;28;20181;-85
2023/02/12 04:23:13;;;;;;;5.07;4.55;;;;;;;;;;5073522;28;20207;-85
2023/02/12 04:25:52;;;;;;;5.47;4.70;;;;;;;;;;5073548;28;20225;-85
2023/02/12 04:28:31;;;;;;;4.03;3.63;;;;;;;;;;5072713;28;20178;-85
2023/02/12 04:31:03;;;;;;;4.03;3.53;;;;;;;;;;5073177;28;20189;-85
2023/02/12 04:33:38;;;;;;;4.65;4.15;;;;;;;;;;5072952;28;20187;-85
2023/02/12 04:36:12;;;;;;;6.38;5.18;;;;;;;;;;5073226;28;20185;-85
2023/02/12 04:38:44;;;;;;;5.28;4.78;;;;;;;;;;5073014;28;20185;-85
2023/02/12 04:41:15;;;;;;;6.78;5.97;;;;;;;;;;5072834;28;20197;-85
2023/02/12 04:43:42;;;;;;;8.25;5.65;;;;;;;;;;5071324;28;20288;-85
2023/02/12 04:46:09;;;;;;;7.00;5.85;;;;;;;;;;5073012;28;20311;-85
2023/02/12 04:48:52;;;;;;;6.60;5.43;;;;;;;;;;5072421;28;20642;-85
2023/02/12 04:51:20;;;;;;;5.88;5.28;;;;;;;;;;5072649;28;20181;-85
2023/02/12 04:53:47;;;;;;;6.72;5.93;;;;;;;;;;5073346;28;20670;-85
2023/02/12 04:56:15;;;;;;;8.95;5.40;;;;;;;;;;5072760;28;20234;-85
2023/02/12 04:58:43;;;;;;;5.97;5.38;;;;;;;;;;5072329;28;20287;-85
2023/02/12 05:01:11;;;;;;;8.88;6.70;;;;;;;;;;5072776;28;20197;-85
2023/02/12 05:03:40;;;;;;;8.65;6.25;;;;;;;;;;5072242;28;20224;-86
2023/02/12 05:06:09;;;;;;;7.45;6.50;;;;;;;;;;5072537;28;20231;-85
2023/02/12 05:08:36;;;;;;;7.90;6.60;;;;;;;;;;5072248;28;20262;-85
2023/02/12 05:11:06;;;;;;;6.80;5.80;;;;;;;;;;5072537;28;20205;-85
2023/02/12 05:13:33;;;;;;;7.15;5.60;;;;;;;;;;5072609;28;20205;-86
2023/02/12 05:16:03;;;;;;;8.60;6.00;;;;;;;;;;5074713;28;20204;-85
2023/02/12 05:18:31;;;;;;;5.28;4.78;;;;;;;;;;5076428;28;20201;-85
2023/02/12 05:21:03;;;;;;;6.05;5.22;;;;;;;;;;5076233;28;20299;-85
2023/02/12 05:23:33;;;;;;;4.45;4.05;;;;;;;;;;5076173;28;20209;-85
2023/02/12 05:26:02;;;;;;;6.55;4.43;;;;;;;;;;5076249;28;20231;-85
2023/02/12 05:28:30;;;;;;;6.13;4.70;;;;;;;;;;5076032;28;20288;-85
2023/02/12 05:31:00;;;;;;;6.40;4.80;;;;;;;;;;5076409;28;20224;-85
2023/02/12 05:33:28;;;;;;;6.75;5.32;;;;;;;;;;5076135;28;20189;-85
2023/02/12 05:35:56;;;;;;;3.70;3.35;;;;;;;;;;5076231;28;20208;-85
2023/02/12 05:38:25;;;;;;;3.60;3.17;;;;;;;;;;5075681;28;20308;-85
2023/02/12 05:40:52;;;;;;;4.07;3.65;;;;;;;;;;5076117;28;20203;-85
2023/02/12 05:43:20;;;;;;;7.18;4.57;;;;;;;;;;5076126;28;20292;-85
2023/02/12 05:45:47;;;;;;;4.00;3.55;;;;;;;;;;5075926;28;20315;-85
2023/02/12 05:48:15;;;;;;;4.53;3.58;;;;;;;;;;5075621;28;20296;-86
2023/02/12 05:50:42;;;;;;;4.40;3.30;;;;;;;;;;5076042;28;20621;-85
2023/02/12 05:53:10;;;;;;;5.13;3.92;;;;;;;;;;5075667;28;20701;-86
2023/02/12 05:55:39;;;;;;;4.95;3.58;;;;;;;;;;5075645;28;20304;-86
2023/02/12 05:58:06;;;;;;;3.50;3.08;;;;;;;;;;5075071;28;20627;-86
2023/02/12 06:00:34;;;;;;;4.57;3.60;;;;;;;;;;5075710;28;20284;-86
2023/02/12 06:03:01;;;;;;;3.47;3.10;;;;;;;;;;5075229;28;20292;-86
2023/02/12 06:05:29;;;;;;;3.83;3.05;;;;;;;;;;5075582;28;20308;-86
2023/02/12 06:07:56;;;;;;;5.50;3.97;;;;;;;;;;5076352;28;20259;-87
2023/02/12 06:10:24;;;;;;;4.50;3.75;;;;;;;;;;5077152;28;20232;-86
2023/02/12 06:12:56;;;;;;;3.78;3.10;;;;;;;;;;5079701;28;20312;-87
2023/02/12 06:15:23;;;;;;;3.38;3.08;;;;;;;;;;5079782;28;20216;-87
2023/02/12 06:17:51;;;;;;;4.30;3.30;;;;;;;;;;5079254;28;20236;-87
2023/02/12 06:20:18;;;;;;;2.92;2.28;;;;;;;;;;5079985;28;20248;-87
2023/02/12 06:22:46;;;;;;;3.42;2.92;;;;;;;;;;5080796;28;20216;-86
2023/02/12 06:25:13;;;;;;;6.53;4.20;;;;;;;;;;5081742;28;20253;-89
2023/02/12 06:27:41;;;;;;;5.20;4.80;;;;;;;;;;5072513;28;20611;-88
2023/02/12 06:30:12;;;;;;;6.20;5.60;;;;;;;;;;5073691;28;20653;-88
2023/02/12 06:32:39;;;;;;;5.50;4.60;;;;;;;;;;5073553;28;20726;-88
2023/02/12 06:35:08;;;;;;;4.90;4.28;;;;;;;;;;5073676;28;20685;-89
2023/02/12 06:37:37;;;;;;;5.38;4.88;;;;;;;;;;5073706;28;20287;-89
2023/02/12 06:40:06;;;;;;;5.18;4.68;;;;;;;;;;5074645;28;20205;-86
2023/02/12 06:42:33;;;;;;;6.18;5.57;;;;;;;;;;5076444;28;20288;-88
2023/02/12 06:45:02;;;;;;;8.63;7.82;;;;;;;;;;5076240;28;20915;-87
2023/02/12 06:47:31;;;;;;;9.43;7.88;;;;;;;;;;5075947;28;20227;-86
2023/02/12 06:49:58;;;;;;;6.57;5.90;;;;;;;;;;5075233;28;20246;-87
2023/02/12 06:52:26;;;;;;;7.03;6.05;;;;;;;;;;5075327;28;20744;-86
2023/02/12 06:54:53;;;;;;;7.30;6.38;;;;;;;;;;5077486;28;20221;-84
2023/02/12 06:57:21;;;;;;;6.93;6.20;;;;;;;;;;5078182;28;20260;-87
2023/02/12 06:59:50;;;;;;;7.68;6.88;;;;;;;;;;5078492;28;20677;-87
2023/02/12 07:02:17;;;;;;;6.38;5.70;;;;;;;;;;5078549;28;20739;-87
2023/02/12 07:04:46;;;;;;;9.23;8.02;;;;;;;;;;5078326;28;20752;-86
2023/02/12 07:07:13;;;;;;;8.73;7.82;;;;;;;;;;5079116;28;20761;-87
2023/02/12 07:09:41;;;;;;;6.95;6.25;;;;;;;;;;5078748;28;20228;-86
2023/02/12 07:12:08;;;;;;;8.18;5.03;;;;;;;;;;5080124;28;20269;-87
2023/02/12 07:14:36;;;;;;;8.02;6.07;;;;;;;;;;5079747;28;20316;-86
2023/02/12 07:17:04;;;;;;;6.15;5.53;;;;;;;;;;5079956;28;20211;-88
2023/02/12 07:19:32;;;;;;;6.10;5.20;;;;;;;;;;5079983;28;20223;-85
2023/02/12 07:22:00;;;;;;;6.07;5.10;;;;;;;;;;5073103;28;20693;-84
2023/02/12 07:24:28;;;;;;;5.30;4.80;;;;;;;;;;5057407;28;20321;-85
2023/02/12 07:26:56;;;;;;;6.95;6.18;;;;;;;;;;5057702;28;20252;-85
2023/02/12 07:29:23;;;;;;;6.90;6.22;;;;;;;;;;5057163;28;20658;-86
2023/02/12 07:31:51;;;;;;;8.35;7.50;;;;;;;;;;5058402;28;20240;-86
2023/02/12 07:34:18;;;;;;;11.05;8.10;;;;;;;;;;5058225;28;20729;-86
2023/02/12 07:36:46;;;;;;;7.63;6.82;;;;;;;;;;5057623;28;20229;-86
2023/02/12 07:39:15;;;;;;;9.07;8.18;;;;;;;;;;5057993;28;20209;-86
2023/02/12 07:41:42;;;;;;;7.32;6.00;;;;;;;;;;5059493;28;20588;-85
2023/02/12 07:44:12;;;;;;;6.20;5.63;;;;;;;;;;5058693;28;20280;-86
2023/02/12 07:46:42;;;;;;;4.60;4.20;;;;;;;;;;5059969;28;20236;-85
2023/02/12 07:49:14;;;;;;;4.32;3.90;;;;;;;;;;5058043;28;20213;-85
2023/02/12 07:51:42;;;;;;;2.72;2.50;;;;;;;;;;5060114;28;20205;-85
2023/02/12 07:54:09;;;;;;;6.20;5.65;;;;;;;;;;5075975;28;20319;-85
2023/02/12 07:56:41;;;;;;;7.05;6.38;;;;;;;;;;5075170;28;20653;-85
2023/02/12 07:59:11;;;;;;;11.98;9.75;;;;;;;;;;5075572;28;20235;-86
2023/02/12 08:01:41;;;;;;;10.32;8.02;;;;;;;;;;5077226;28;20308;-86
2023/02/12 08:04:12;;;;;;;10.23;8.50;;;;;;;;;;5076185;28;20312;-86
2023/02/12 08:06:41;;;;;;;16.65;13.60;;;;;;;;;;5077310;28;20292;-85
2023/02/12 08:09:11;;;;;;;15.85;12.35;;;;;;;;;;5078192;28;20311;-86
2023/02/12 08:11:41;;;;;;;16.60;13.75;;;;;;;;;;5077710;28;20236;-86
2023/02/12 08:14:10;;;;;;;12.48;9.77;;;;;;;;;;5077184;28;20308;-86
2023/02/12 08:16:39;;;;;;;11.68;8.95;;;;;;;;;;5078700;28;20204;-87
2023/02/12 08:19:06;;;;;;;9.38;7.22;;;;;;;;;;5078968;28;20268;-87
2023/02/12 08:21:34;;;;;;;8.38;7.35;;;;;;;;;;5078868;28;20207;-87
2023/02/12 08:24:02;;;;;;;10.95;9.57;;;;;;;;;;5078259;28;20316;-86
2023/02/12 08:26:32;;;;;;;7.60;6.97;;;;;;;;;;5078029;28;20201;-86
2023/02/12 08:29:05;;;;;;;7.05;6.35;;;;;;;;;;5078186;28;20673;-87
2023/02/12 08:31:35;;;;;;;8.02;7.22;;;;;;;;;;5078019;28;20653;-86
2023/02/12 08:34:03;;;;;;;5.28;4.22;;;;;;;;;;5077719;28;20252;-87
2023/02/12 08:36:35;;;;;;;7.70;6.07;;;;;;;;;;5078830;28;20283;-86
2023/02/12 08:39:03;;;;;;;6.05;5.45;;;;;;;;;;5078341;28;20228;-87
2023/02/12 08:41:31;;;;;;;6.28;4.97;;;;;;;;;;5078628;28;20228;-87
2023/02/12 08:44:02;;;;;;;10.88;8.07;;;;;;;;;;5078607;28;20312;-86
2023/02/12 08:46:33;;;;;;;5.65;5.05;;;;;;;;;;5078165;28;20637;-86
2023/02/12 08:49:02;;;;;;;5.72;5.22;;;;;;;;;;5077045;28;20335;-86
2023/02/12 08:51:33;;;;;;;7.10;6.40;;;;;;;;;;5080357;28;20196;-87
2023/02/12 08:54:03;;;;;;;14.25;10.63;;;;;;;;;;5082652;28;20221;-88
2023/02/12 08:56:33;;;;;;;13.27;10.88;;;;;;;;;;5082520;28;20288;-86
2023/02/12 08:59:03;;;;;;;12.38;9.82;;;;;;;;;;5081153;28;20669;-87
2023/02/12 09:01:33;;;;;;;10.77;9.02;;;;;;;;;;5083796;28;20204;-87
2023/02/12 09:04:01;;;;;;;11.50;9.45;;;;;;;;;;5082777;28;20220;-85
2023/02/12 09:06:28;;;;;;;8.55;7.72;;;;;;;;;;5103771;22;20284;-83
2023/02/12 09:08:56;;;;;;;11.55;8.77;;;;;;;;;;5074318;28;20693;-86
2023/02/12 09:11:29;;;;;;;16.17;11.98;;;;;;;;;;5075022;28;20312;-86
2023/02/12 09:13:58;;;;;;;32.05;19.85;;;;;;;;;;5074195;28;20207;-87
2023/02/12 09:16:28;;;;;;;19.67;12.23;;;;;;;;;;5074382;28;20197;-87
2023/02/12 09:18:56;;;;;;;11.98;10.18;;;;;;;;;;5073507;28;20201;-89
2023/02/12 09:21:24;;;;;;;12.80;8.73;;;;;;;;;;5075083;28;20248;-86
2023/02/12 09:23:51;;;;;;;7.63;6.03;;;;;;;;;;5054038;28;20220;-89
2023/02/12 09:26:24;;;;;;;6.07;4.22;;;;;;;;;;5054792;28;20729;-86
2023/02/12 09:28:52;;;;;;;3.70;3.10;;;;;;;;;;5053619;28;20257;-85
2023/02/12 09:31:24;;;;;;;5.07;4.22;;;;;;;;;;5053938;28;20231;-86
2023/02/12 09:33:54;;;;;;;3.35;3.13;;;;;;;;;;5054087;28;20237;-87
2023/02/12 09:36:22;;;;;;;3.83;3.17;;;;;;;;;;5053794;28;20204;-86
2023/02/12 09:38:49;;;;;;;4.45;3.63;;;;;;;;;;5053273;28;20751;-85
2023/02/12 09:41:43;;;;;;;3.63;3.22;;;;;;;;;;5053954;28;20232;-84
2023/02/12 09:44:17;;;;;;;3.78;3.45;;;;;;;;;;5054527;28;20267;-85
2023/02/12 09:46:50;;;;;;;4.63;3.97;;;;;;;;;;5054536;28;20664;-85
2023/02/12 09:49:43;;;;;;;2.70;2.50;;;;;;;;;;5054088;28;20275;-85
2023/02/12 09:52:16;;;;;;;4.50;4.10;;;;;;;;;;5059850;28;20315;-85
2023/02/12 09:54:44;;;;;;;6.32;5.40;;;;;;;;;;5074227;28;20205;-85
2023/02/12 09:57:18;;;;;;;5.50;5.00;;;;;;;;;;5073686;28;20211;-83
2023/02/12 09:59:50;;;;;;;4.30;3.88;;;;;;;;;;5073112;28;20195;-87
2023/02/12 10:02:20;;;;;;;4.38;3.97;;;;;;;;;;5073708;28;20583;-83
2023/02/12 10:04:49;;;;;;;4.15;3.75;;;;;;;;;;5073643;28;20743;-86
2023/02/12 10:07:27;;;;;;;4.82;3.58;;;;;;;;;;5073736;28;20212;-85
2023/02/12 10:10:10;;;;;;;4.10;3.47;;;;;;;;;;5072970;28;20319;-84
2023/02/12 10:12:44;;;;;;;4.60;3.92;;;;;;;;;;5073579;28;20690;-84
2023/02/12 10:15:37;;;;;;;3.80;3.50;;;;;;;;;;5073596;28;20589;-85
2023/02/12 10:18:55;;;;;;;2.75;2.55;;;;;;;;;;5072969;28;20201;-84
2023/02/12 10:21:39;;;;;;;3.03;2.72;;;;;;;;;;5064610;28;20260;-84
2023/02/12 10:24:40;;;;;;;3.28;2.92;;;;;;;;;;5052789;28;20205;-85
2023/02/12 10:27:13;;;;;;;3.40;3.10;;;;;;;;;;5053354;28;20200;-85
2023/02/12 10:29:42;;;;;;;3.15;2.75;;;;;;;;;;5052407;28;20217;-85
2023/02/12 10:32:17;;;;;;;3.42;3.13;;;;;;;;;;5053348;28;20225;-85
2023/02/12 10:34:45;;;;;;;2.97;2.67;;;;;;;;;;5053182;28;20269;-84
2023/02/12 10:37:25;;;;;;;2.70;2.50;;;;;;;;;;5061714;28;20295;-85
2023/02/12 10:39:57;;;;;;;2.83;2.63;;;;;;;;;;5070137;28;20210;-85
2023/02/12 10:42:36;;;;;;;2.20;2.10;;;;;;;;;;5053208;28;20308;-85
2023/02/12 10:45:05;;;;;;;3.03;2.78;;;;;;;;;;5060474;28;20653;-85
2023/02/12 10:47:33;;;;;;;3.20;2.88;;;;;;;;;;5072704;28;20207;-85
2023/02/12 10:50:02;;;;;;;3.60;2.90;;;;;;;;;;5072132;28;20303;-86
2023/02/12 10:52:39;;;;;;;3.83;2.65;;;;;;;;;;5072775;28;20203;-85
2023/02/12 10:55:25;;;;;;;3.00;2.70;;;;;;;;;;5073055;28;20197;-85
2023/02/12 10:57:53;;;;;;;2.83;2.60;;;;;;;;;;5072228;28;20235;-85
2023/02/12 11:00:27;;;;;;;2.15;2.00;;;;;;;;;;5072010;28;20240;-85
2023/02/12 11:03:19;;;;;;;2.25;2.08;;;;;;;;;;5072674;28;20197;-85
2023/02/12 11:05:47;;;;;;;2.85;2.50;;;;;;;;;;5073118;28;20204;-85
2023/02/12 11:08:32;;;;;;;2.92;2.58;;;;;;;;;;5071837;28;20200;-85
2023/02/12 11:11:10;;;;;;;2.55;2.00;;;;;;;;;;5072702;28;20263;-85
2023/02/12 11:13:40;;;;;;;5.28;2.03;;;;;;;;;;5071831;28;20212;-85
2023/02/12 11:16:09;;;;;;;1.60;1.50;;;;;;;;;;5072660;28;20199;-85
2023/02/12 11:18:37;;;;;;;1.38;1.27;;;;;;;;;;5072274;28;20230;-85
2023/02/12 11:21:07;;;;;;;1.45;1.35;;;;;;;;;;5074701;28;20312;-85
2023/02/12 11:23:38;;;;;;;2.88;2.58;;;;;;;;;;5077586;28;20209;-85
2023/02/12 11:26:09;;;;;;;1.63;1.52;;;;;;;;;;5078745;28;20752;-85
2023/02/12 11:28:37;;;;;;;2.53;2.33;;;;;;;;;;5077985;28;20207;-85
2023/02/12 11:31:22;;;;;;;3.15;2.63;;;;;;;;;;5077570;28;20264;-83
2023/02/12 11:34:09;;;;;;;3.30;2.60;;;;;;;;;;5072139;28;20197;-84
2023/02/12 11:36:39;;;;;;;2.30;2.10;;;;;;;;;;5072166;28;20205;-85
2023/02/12 11:39:29;;;;;;;6.25;2.50;;;;;;;;;;5071376;28;20191;-85
2023/02/12 11:41:58;;;;;;;2.40;2.20;;;;;;;;;;5071468;28;20217;-86
2023/02/12 11:44:28;;;;;;;2.90;2.70;;;;;;;;;;5070475;28;20189;-85
2023/02/12 11:46:58;;;;;;;2.63;2.40;;;;;;;;;;5066501;28;20300;-85
2023/02/12 11:49:28;;;;;;;2.83;2.58;;;;;;;;;;5050865;28;20682;-85
2023/02/12 11:51:57;;;;;;;3.65;3.10;;;;;;;;;;5055103;28;20689;-86
2023/02/12 11:54:29;;;;;;;3.15;2.65;;;;;;;;;;5071112;28;20687;-86
2023/02/12 11:56:56;;;;;;;3.28;2.63;;;;;;;;;;5070757;28;20207;-86
2023/02/12 11:59:35;;;;;;;3.25;2.95;;;;;;;;;;5070780;28;20197;-85
2023/02/12 12:02:16;;;;;;;3.38;3.08;;;;;;;;;;5071327;28;20255;-86
2023/02/12 12:04:44;;;;;;;2.70;2.50;;;;;;;;;;5069516;28;20193;-85
2023/02/12 12:07:17;;;;;;;2.55;2.35;;;;;;;;;;5070874;28;20205;-86
2023/02/12 12:09:51;;;;;;;2.55;2.35;;;;;;;;;;5069329;28;20593;-85
2023/02/12 12:12:24;;;;;;;3.28;2.03;;;;;;;;;;5071367;28;20216;-85
2023/02/12 12:20:35;;;;;;;2.08;1.98;;;;;;;;;;5071666;28;20224;-84
2023/02/12 12:23:07;;;;;;;2.00;1.90;;;;;;;;;;5071628;28;20209;-85
2023/02/12 12:25:42;;;;;;;2.53;2.33;;;;;;;;;;5070984;28;20204;-84
2023/02/12 12:28:28;;;;;;;2.15;1.83;;;;;;;;;;5070831;28;20192;-85
2023/02/12 12:31:06;;;;;;;1.88;1.77;;;;;;;;;;5071605;28;20232;-84
2023/02/12 12:33:40;;;;;;;2.13;1.92;;;;;;;;;;5071396;28;20199;-85
2023/02/12 12:36:33;;;;;;;1.80;1.70;;;;;;;;;;5070229;28;20206;-84
2023/02/12 12:39:07;;;;;;;2.30;1.80;;;;;;;;;;5069572;28;20192;-84
2023/02/12 12:41:41;;;;;;;2.10;2.00;;;;;;;;;;5070956;28;20314;-85
2023/02/12 12:44:24;;;;;;;2.20;2.08;;;;;;;;;;5070862;28;20207;-85
2023/02/12 12:47:19;;;;;;;5.38;4.82;;;;;;;;;;5071157;28;20291;-85
2023/02/12 12:49:58;;;;;;;4.13;3.83;;;;;;;;;;5070307;28;20205;-85
2023/02/12 12:52:57;;;;;;;3.53;3.22;;;;;;;;;;5070949;28;20232;-85
2023/02/12 12:56:19;;;;;;;3.78;3.40;;;;;;;;;;5071006;28;20215;-85
2023/02/12 12:59:09;;;;;;;3.00;2.80;;;;;;;;;;5007782;28;20199;-85
2023/02/12 13:02:18;;;;;;;2.28;2.05;;;;;;;;;;5065352;28;20220;-84
2023/02/12 13:05:35;;;;;;;2.20;2.00;;;;;;;;;;5068259;28;20575;-84
2023/02/12 13:08:13;;;;;;;2.75;2.17;;;;;;;;;;5056727;28;20599;-85
2023/02/12 13:10:44;;;;;;;2.08;1.98;;;;;;;;;;5071996;28;20224;-84
2023/02/12 13:13:25;;;;;;;2.75;2.50;;;;;;;;;;5070637;28;20411;-85
2023/02/12 13:15:59;;;;;;;3.67;3.22;;;;;;;;;;5071039;28;20579;-84
2023/02/12 13:18:40;;;;;;;4.63;3.70;;;;;;;;;;5070215;28;20288;-85
2023/02/12 13:21:16;;;;;;;4.05;3.65;;;;;;;;;;5070930;28;20595;-87
2023/02/12 13:23:50;;;;;;;3.30;3.00;;;;;;;;;;5070908;28;20917;-85
2023/02/12 13:26:23;;;;;;;3.80;3.25;;;;;;;;;;5070795;28;20212;-84
2023/02/12 13:28:55;;;;;;;3.00;2.80;;;;;;;;;;5070078;28;20662;-85
2023/02/12 13:31:27;;;;;;;4.28;3.88;;;;;;;;;;5070491;28;20233;-84
2023/02/12 13:33:58;;;;;;;4.90;4.40;;;;;;;;;;5070436;28;20208;-85
2023/02/12 13:36:25;;;;;;;3.90;3.53;;;;;;;;;;5072148;28;20201;-84
2023/02/12 13:38:58;;;;;;;4.22;3.80;;;;;;;;;;5073630;28;20296;-84
2023/02/12 13:41:26;;;;;;;9.15;7.45;;;;;;;;;;5073046;28;20307;-84
2023/02/12 13:44:05;;;;;;;5.90;4.65;;;;;;;;;;5074885;28;20311;-86
2023/02/12 13:46:49;;;;;;;5.00;4.38;;;;;;;;;;5074050;28;20205;-85
2023/02/12 13:49:26;;;;;;;4.38;3.67;;;;;;;;;;5073586;28;20287;-87
2023/02/12 13:51:59;;;;;;;4.15;3.75;;;;;;;;;;5073656;28;20251;-87
2023/02/12 13:54:41;;;;;;;3.40;3.10;;;;;;;;;;5074083;28;20197;-87
2023/02/12 13:57:11;;;;;;;4.57;3.40;;;;;;;;;;5073440;28;20582;-87
2023/02/12 13:59:43;;;;;;;2.70;2.50;;;;;;;;;;5073252;28;20292;-85
2023/02/12 14:02:51;;;;;;;3.28;2.85;;;;;;;;;;5074085;28;20249;-87
2023/02/12 14:05:27;;;;;;;3.70;2.85;;;;;;;;;;5073893;28;20962;-86
2023/02/12 14:07:57;;;;;;;3.83;3.05;;;;;;;;;;5073711;28;20212;-86
2023/02/12 14:10:30;;;;;;;3.15;2.85;;;;;;;;;;5073669;28;20228;-87
2023/02/12 14:13:10;;;;;;;1.88;1.75;;;;;;;;;;5073998;28;20304;-87
2023/02/12 14:15:43;;;;;;;1.88;1.77;;;;;;;;;;5073704;28;20197;-88
2023/02/12 14:18:31;;;;;;;2.95;2.70;;;;;;;;;;5073164;28;20229;-87
2023/02/12 14:21:35;;;;;;;2.30;2.10;;;;;;;;;;5073465;28;20271;-87
2023/02/12 14:24:52;;;;;;;8.43;6.10;;;;;;;;;;5031175;28;20206;-86
2023/02/12 14:27:41;;;;;;;5.07;4.15;;;;;;;;;;4991998;28;20695;-86
2023/02/12 14:30:41;;;;;;;4.97;4.13;;;;;;;;;;5047536;28;20197;-86
2023/02/12 14:33:22;;;;;;;5.55;2.95;;;;;;;;;;5053275;28;20204;-87
2023/02/12 14:36:17;;;;;;;4.72;3.72;;;;;;;;;;5053597;28;20305;-87
2023/02/12 14:39:02;;;;;;;3.63;3.17;;;;;;;;;;5052951;28;20204;-87
2023/02/12 14:41:42;;;;;;;3.35;2.50;;;;;;;;;;5051633;28;20218;-86
2023/02/12 14:44:47;;;;;;;2.40;2.20;;;;;;;;;;5053563;28;20288;-87
2023/02/12 14:47:52;;;;;;;2.80;2.53;;;;;;;;;;5052499;28;20192;-86
2023/02/12 14:50:36;;;;;;;2.88;2.67;;;;;;;;;;5052655;28;20720;-87
2023/02/12 14:53:25;;;;;;;2.80;2.60;;;;;;;;;;5111272;22;20303;-81
2023/02/12 14:55:53;;;;;;;2.42;2.17;;;;;;;;;;5075822;28;20201;-81
2023/02/12 14:58:23;;;;;;;1.98;1.88;;;;;;;;;;5073377;28;20207;-80
2023/02/12 15:00:52;;;;;;;2.42;2.22;;;;;;;;;;5075187;28;20681;-80
2023/02/12 15:03:25;;;;;;;2.00;1.85;;;;;;;;;;5075982;28;20311;-80
2023/02/12 15:06:02;;;;;;;2.05;1.95;;;;;;;;;;5074152;28;20209;-81
2023/02/12 15:08:40;;;;;;;2.10;1.90;;;;;;;;;;5073578;28;20199;-82
2023/02/12 15:11:25;;;;;;;2.10;2.00;;;;;;;;;;5074058;28;20196;-82
2023/02/12 15:13:57;;;;;;;2.17;2.08;;;;;;;;;;5076128;28;20197;-81
2023/02/12 15:16:43;;;;;;;1.95;1.80;;;;;;;;;;5073886;28;20768;-82
2023/02/12 15:19:23;;;;;;;1.77;1.67;;;;;;;;;;5074520;28;20231;-82
2023/02/12 15:21:53;;;;;;;2.40;2.30;;;;;;;;;;5073459;28;20231;-80
2023/02/12 15:24:25;;;;;;;2.08;1.88;;;;;;;;;;5086305;28;20215;-80
2023/02/12 15:26:54;;;;;;;1.70;1.60;;;;;;;;;;5093194;28;20205;-81
2023/02/12 15:29:24;;;;;;;1.80;1.70;;;;;;;;;;5078349;28;20193;-81